createdAt,value
2022-09-06T00:01:17.150Z,6.50
2022-09-06T00:03:45.705Z,6.17
2022-09-06T00:06:15.458Z,5.43
2022-09-06T00:08:45.277Z,5.75
2022-09-06T00:11:13.949Z,5.47
2022-09-06T00:13:42.380Z,5.93
2022-09-06T00:16:13.413Z,5.93
2022-09-06T00:18:43.177Z,6.30
2022-09-06T00:21:16.799Z,6.22
2022-09-06T00:23:44.984Z,6.07
2022-09-06T00:26:13.640Z,6.03
2022-09-06T00:28:41.700Z,6.40
2022-09-06T00:31:11.749Z,5.57
2022-09-06T00:33:39.741Z,7.25
2022-09-06T00:36:09.948Z,6.32
2022-09-06T00:38:38.447Z,6.63
2022-09-06T00:41:07.842Z,6.88
2022-09-06T00:43:35.813Z,6.60
2022-09-06T00:46:04.671Z,6.57
2022-09-06T00:48:32.910Z,7.10
2022-09-06T00:51:03.235Z,6.85
2022-09-06T00:53:33.552Z,6.80
2022-09-06T00:56:02.026Z,6.93
2022-09-06T00:58:30.079Z,6.75
2022-09-06T01:00:57.899Z,7.45
2022-09-06T01:03:26.675Z,6.32
2022-09-06T01:06:01.569Z,6.70
2022-09-06T01:08:43.932Z,6.57
2022-09-06T01:11:26.285Z,7.30
2022-09-06T01:14:01.123Z,6.70
2022-09-06T01:16:37.249Z,6.57
2022-09-06T01:19:31.845Z,7.55
2022-09-06T01:22:13.538Z,7.60
2022-09-06T01:25:11.310Z,6.40
2022-09-06T01:28:11.171Z,6.80
2022-09-06T01:30:45.880Z,6.20
2022-09-06T01:33:21.295Z,7.60
2022-09-06T01:35:54.278Z,7.95
2022-09-06T01:38:22.275Z,7.40
2022-09-06T01:40:50.078Z,7.93
2022-09-06T01:43:27.381Z,7.95
2022-09-06T01:46:04.314Z,7.90
2022-09-06T01:48:47.622Z,7.35
2022-09-06T01:51:21.374Z,7.55
2022-09-06T01:54:16.189Z,8.15
2022-09-06T01:56:52.143Z,8.48
2022-09-06T01:59:36.559Z,8.05
2022-09-06T02:02:10.939Z,7.97
2022-09-06T02:04:45.997Z,7.65
2022-09-06T02:07:21.277Z,8.30
2022-09-06T02:09:53.181Z,8.05
2022-09-06T02:12:23.743Z,7.65
2022-09-06T02:14:57.908Z,7.78
2022-09-06T02:17:31.488Z,7.75
2022-09-06T02:20:03.527Z,7.63
2022-09-06T02:22:34.424Z,8.23
2022-09-06T02:25:04.305Z,8.55
2022-09-06T02:27:32.109Z,8.30
2022-09-06T02:30:02.992Z,7.78
2022-09-06T02:32:35.956Z,8.70
2022-09-06T02:35:09.775Z,8.40
2022-09-06T02:37:37.645Z,8.27
2022-09-06T02:40:06.233Z,8.15
2022-09-06T02:42:34.328Z,7.63
2022-09-06T02:45:05.151Z,7.80
2022-09-06T02:47:32.952Z,7.85
2022-09-06T02:50:00.844Z,7.93
2022-09-06T02:52:28.697Z,8.25
2022-09-06T02:54:56.570Z,8.18
2022-09-06T02:57:24.356Z,7.50
2022-09-06T02:59:52.138Z,8.95
2022-09-06T03:02:21.335Z,8.10
2022-09-06T03:04:49.215Z,8.25
2022-09-06T03:07:17.010Z,8.52
2022-09-06T03:09:44.840Z,7.57
2022-09-06T03:12:12.669Z,7.72
2022-09-06T03:14:41.275Z,8.43
2022-09-06T03:17:09.068Z,8.20
2022-09-06T03:19:38.242Z,8.07
2022-09-06T03:22:06.096Z,8.25
2022-09-06T03:24:33.896Z,8.00
2022-09-06T03:27:01.710Z,8.15
2022-09-06T03:29:29.500Z,8.40
2022-09-06T03:31:57.336Z,7.82
2022-09-06T03:34:25.132Z,8.80
2022-09-06T03:36:54.308Z,7.50
2022-09-06T03:39:22.248Z,7.80
2022-09-06T03:41:50.053Z,8.50
2022-09-06T03:44:17.840Z,7.68
2022-09-06T03:46:46.311Z,7.95
2022-09-06T03:49:14.100Z,7.30
2022-09-06T03:51:41.931Z,8.35
2022-09-06T03:54:11.362Z,7.13
2022-09-06T03:56:39.195Z,6.97
2022-09-06T03:59:07.067Z,7.85
2022-09-06T04:01:34.920Z,6.72
2022-09-06T04:04:03.058Z,7.82
2022-09-06T04:06:30.858Z,7.72
2022-09-06T04:08:58.671Z,7.65
2022-09-06T04:11:27.838Z,6.88
2022-09-06T04:13:55.645Z,7.85
2022-09-06T04:16:23.458Z,8.10
2022-09-06T04:18:51.325Z,7.13
2022-09-06T04:21:19.120Z,6.72
2022-09-06T04:23:46.912Z,8.05
2022-09-06T04:26:15.060Z,7.72
2022-09-06T04:28:44.204Z,7.53
2022-09-06T04:31:12.024Z,7.03
2022-09-06T04:33:39.943Z,7.10
2022-09-06T04:36:12.077Z,8.35
2022-09-06T04:38:41.957Z,8.63
2022-09-06T04:41:10.944Z,7.97
2022-09-06T04:43:38.767Z,8.25
2022-09-06T04:46:12.879Z,8.02
2022-09-06T04:48:40.681Z,7.80
2022-09-06T04:51:08.495Z,8.02
2022-09-06T04:53:36.269Z,9.23
2022-09-06T04:56:04.369Z,8.18
2022-09-06T04:58:32.560Z,8.02
2022-09-06T05:01:00.407Z,8.77
2022-09-06T05:03:29.642Z,10.77
2022-09-06T05:06:08.609Z,9.18
2022-09-06T05:08:38.396Z,9.15
2022-09-06T05:11:07.333Z,10.68
2022-09-06T05:13:36.613Z,9.38
2022-09-06T05:16:06.609Z,9.73
2022-09-06T05:18:36.451Z,12.65
2022-09-06T05:21:04.599Z,10.35
2022-09-06T05:23:32.426Z,10.43
2022-09-06T05:26:00.220Z,8.57
2022-09-06T05:28:28.104Z,8.68
2022-09-06T05:31:06.362Z,10.38
2022-09-06T05:33:35.605Z,8.98
2022-09-06T05:36:04.078Z,9.45
2022-09-06T05:38:32.013Z,9.98
2022-09-06T05:40:59.904Z,7.97
2022-09-06T05:43:27.701Z,9.35
2022-09-06T05:45:55.573Z,8.50
2022-09-06T05:48:23.462Z,10.20
2022-09-06T05:51:02.530Z,8.52
2022-09-06T05:53:35.227Z,8.43
2022-09-06T05:56:03.396Z,9.32
2022-09-06T05:58:31.417Z,8.48
2022-09-06T06:01:06.530Z,8.80
2022-09-06T06:03:34.438Z,8.90
2022-09-06T06:06:03.590Z,8.15
2022-09-06T06:08:31.408Z,9.15
2022-09-06T06:11:01.267Z,8.00
2022-09-06T06:13:34.724Z,7.60
2022-09-06T06:16:03.269Z,7.35
2022-09-06T06:18:31.116Z,6.78
2022-09-06T06:21:10.920Z,7.20
2022-09-06T06:23:39.153Z,7.13
2022-09-06T06:26:07.556Z,7.68
2022-09-06T06:28:35.641Z,6.20
2022-09-06T06:31:03.727Z,7.43
2022-09-06T06:33:32.438Z,7.70
2022-09-06T06:36:01.612Z,6.85
2022-09-06T06:38:35.305Z,7.50
2022-09-06T06:41:06.538Z,6.22
2022-09-06T06:43:37.801Z,6.57
2022-09-06T06:46:06.642Z,6.28
2022-09-06T06:48:34.499Z,6.43
2022-09-06T06:51:02.838Z,6.43
2022-09-06T06:53:30.663Z,6.22
2022-09-06T06:56:00.084Z,5.75
2022-09-06T06:58:28.049Z,5.82
2022-09-06T07:00:56.031Z,6.18
2022-09-06T07:03:23.929Z,5.00
2022-09-06T07:08:40.044Z,5.60
2022-09-06T07:11:10.971Z,5.30
2022-09-06T07:13:38.988Z,5.93
2022-09-06T07:16:12.169Z,5.60
2022-09-06T07:18:42.127Z,5.53
2022-09-06T07:26:39.041Z,5.88
2022-09-06T07:29:08.750Z,5.60
2022-09-06T07:34:26.519Z,5.38
2022-09-06T07:36:54.520Z,5.57
2022-09-06T07:39:22.678Z,6.22
2022-09-06T07:41:52.203Z,5.53
2022-09-06T07:44:20.035Z,5.30
2022-09-06T07:46:47.872Z,5.93
2022-09-06T07:49:15.713Z,5.80
2022-09-06T07:51:43.818Z,5.80
2022-09-06T07:54:30.375Z,5.28
2022-09-06T07:56:59.828Z,5.85
2022-09-06T07:59:27.651Z,5.07
2022-09-06T08:01:55.610Z,5.35
2022-09-06T08:04:23.474Z,5.93
2022-09-06T08:09:40.586Z,5.00
2022-09-06T08:12:09.972Z,5.90
2022-09-06T08:14:37.809Z,5.40
2022-09-06T08:17:05.669Z,6.18
2022-09-06T08:19:34.392Z,5.40
2022-09-06T08:22:02.342Z,5.32
2022-09-06T08:24:30.439Z,5.28
2022-09-06T08:26:58.227Z,5.30
2022-09-06T08:29:27.923Z,4.95
2022-09-06T08:31:55.873Z,5.32
2022-09-06T08:34:23.675Z,5.45
2022-09-06T08:36:51.524Z,5.47
2022-09-06T08:39:19.483Z,5.88
2022-09-06T08:41:51.934Z,5.57
2022-09-06T08:47:14.457Z,5.53
2022-09-06T08:49:45.029Z,5.60
2022-09-06T08:52:24.689Z,4.78
2022-09-06T08:55:00.411Z,5.25
2022-09-06T08:57:41.938Z,5.05
2022-09-06T09:00:12.975Z,6.13
2022-09-06T09:02:46.424Z,4.95
2022-09-06T09:05:23.947Z,5.60
2022-09-06T09:08:01.590Z,5.63
2022-09-06T09:10:32.546Z,5.40
2022-09-06T09:13:05.768Z,5.40
2022-09-06T09:15:40.229Z,4.88
2022-09-06T09:18:09.813Z,5.60
2022-09-06T09:20:39.132Z,4.93
2022-09-06T09:23:06.958Z,5.15
2022-09-06T09:25:35.695Z,5.65
2022-09-06T09:28:03.842Z,5.47
2022-09-06T09:30:49.400Z,5.10
2022-09-06T09:33:28.759Z,5.40
2022-09-06T09:35:59.258Z,6.05
2022-09-06T09:38:28.844Z,5.30
2022-09-06T09:40:58.590Z,5.10
2022-09-06T09:43:29.497Z,6.00
2022-09-06T09:46:16.152Z,5.82
2022-09-06T09:49:00.998Z,5.75
2022-09-06T09:51:30.224Z,5.40
2022-09-06T09:53:59.741Z,5.40
2022-09-06T09:56:33.785Z,5.65
2022-09-06T10:01:34.087Z,6.30
2022-09-06T10:09:40.650Z,4.93
2022-09-06T10:12:08.795Z,5.00
2022-09-06T10:14:43.107Z,4.60
2022-09-06T10:17:19.667Z,5.80
2022-09-06T10:19:49.055Z,5.03
2022-09-06T10:22:30.922Z,5.20
2022-09-06T10:25:36.636Z,5.60
2022-09-06T10:28:31.165Z,5.00
2022-09-06T10:31:47.501Z,5.10
2022-09-06T10:34:48.714Z,5.28
2022-09-06T10:37:36.940Z,4.57
2022-09-06T10:40:07.989Z,4.97
2022-09-06T10:42:43.727Z,4.80
2022-09-06T10:45:28.315Z,4.72
2022-09-06T10:47:59.437Z,5.05
2022-09-06T10:50:33.919Z,5.32
2022-09-06T10:53:10.256Z,5.18
2022-09-06T10:55:41.157Z,4.80
2022-09-06T11:00:47.569Z,4.85
2022-09-06T11:06:14.020Z,4.90
2022-09-06T11:08:47.478Z,5.00
2022-09-06T11:11:21.317Z,5.30
2022-09-06T11:13:49.207Z,4.93
2022-09-06T11:16:23.502Z,4.65
2022-09-06T11:18:58.923Z,4.15
2022-09-06T11:22:00.905Z,4.28
2022-09-06T11:24:45.297Z,3.85
2022-09-06T11:27:18.709Z,3.78
2022-09-06T11:29:52.378Z,4.18
2022-09-06T11:32:34.023Z,3.85
2022-09-06T11:35:05.612Z,3.40
2022-09-06T11:37:37.059Z,3.58
2022-09-06T11:40:29.177Z,3.30
2022-09-06T11:43:18.912Z,3.50
2022-09-06T11:45:49.974Z,3.10
2022-09-06T11:48:35.098Z,3.55
2022-09-06T11:51:07.621Z,3.60
2022-09-06T11:53:57.712Z,3.72
2022-09-06T11:56:31.005Z,3.90
2022-09-06T11:59:03.784Z,3.80
2022-09-06T12:01:40.869Z,3.70
2022-09-06T12:04:10.720Z,3.50
2022-09-06T12:06:41.434Z,3.50
2022-09-06T12:09:33.297Z,3.22
2022-09-06T12:12:03.677Z,3.60
2022-09-06T12:14:39.628Z,3.75
2022-09-06T12:17:28.939Z,3.17
2022-09-06T12:20:06.243Z,3.53
2022-09-06T12:23:04.669Z,3.22
2022-09-06T12:26:00.206Z,3.50
2022-09-06T12:28:41.043Z,3.53
2022-09-06T12:31:43.518Z,3.53
2022-09-06T12:34:15.335Z,3.92
2022-09-06T12:36:56.430Z,3.85
2022-09-06T12:39:25.055Z,3.85
2022-09-06T12:41:56.942Z,3.90
2022-09-06T12:44:32.568Z,3.67
2022-09-06T12:47:07.567Z,2.85
2022-09-06T12:49:35.814Z,2.97
2022-09-06T12:52:08.761Z,2.67
2022-09-06T12:54:45.118Z,2.83
2022-09-06T12:57:14.668Z,3.00
2022-09-06T12:59:51.245Z,2.80
2022-09-06T13:02:25.113Z,2.80
2022-09-06T13:04:57.528Z,2.92
2022-09-06T13:07:27.080Z,2.92
2022-09-06T13:09:57.427Z,3.20
2022-09-06T13:12:27.786Z,2.63
2022-09-06T13:14:59.418Z,2.65
2022-09-06T13:17:29.306Z,3.40
2022-09-06T13:19:59.867Z,2.72
2022-09-06T13:22:43.223Z,2.92
2022-09-06T13:25:25.904Z,3.20
2022-09-06T13:27:57.729Z,2.80
2022-09-06T13:30:38.553Z,2.90
2022-09-06T13:33:08.267Z,2.90
2022-09-06T13:35:39.029Z,3.17
2022-09-06T13:38:31.473Z,2.83
2022-09-06T13:41:16.736Z,2.97
2022-09-06T13:43:47.599Z,2.65
2022-09-06T13:46:16.847Z,3.10
2022-09-06T13:48:45.305Z,3.10
2022-09-06T13:51:13.702Z,2.88
2022-09-06T13:53:41.834Z,3.30
2022-09-06T13:56:09.667Z,3.00
2022-09-06T13:58:37.794Z,2.88
2022-09-06T14:01:08.654Z,2.80
2022-09-06T14:03:41.738Z,2.83
2022-09-06T14:06:10.886Z,3.22
2022-09-06T14:09:03.383Z,2.95
2022-09-06T14:11:27.428Z,2.70
2022-09-06T14:13:55.314Z,3.05
2022-09-06T14:16:23.321Z,2.88
2022-09-06T14:18:53.038Z,3.22
2022-09-06T14:21:21.426Z,3.10
2022-09-06T14:23:52.226Z,2.85
2022-09-06T14:26:21.506Z,3.33
2022-09-06T14:28:49.606Z,3.30
2022-09-06T14:31:19.308Z,3.28
2022-09-06T14:33:47.264Z,2.90
2022-09-06T14:36:18.623Z,3.22
2022-09-06T14:38:47.986Z,3.00
2022-09-06T14:41:17.745Z,3.22
2022-09-06T14:43:49.849Z,2.67
2022-09-06T14:46:19.856Z,2.78
2022-09-06T14:48:47.888Z,2.35
2022-09-06T14:51:21.991Z,2.90
2022-09-06T14:53:52.119Z,3.05
2022-09-06T14:56:21.422Z,2.90
2022-09-06T14:58:49.439Z,3.03
2022-09-06T15:01:19.362Z,2.58
2022-09-06T15:03:51.471Z,3.00
2022-09-06T15:06:22.444Z,2.70
2022-09-06T15:08:53.627Z,2.50
2022-09-06T15:11:33.216Z,2.70
2022-09-06T15:14:02.068Z,2.63
2022-09-06T15:16:29.991Z,2.38
2022-09-06T15:18:58.234Z,2.42
2022-09-06T15:21:27.672Z,2.63
2022-09-06T15:23:55.603Z,2.85
2022-09-06T15:26:23.563Z,2.75
2022-09-06T15:28:51.930Z,2.35
2022-09-06T15:31:20.090Z,2.70
2022-09-06T15:33:48.926Z,2.58
2022-09-06T15:36:18.608Z,2.70
2022-09-06T15:38:49.731Z,2.55
2022-09-06T15:41:20.100Z,2.80
2022-09-06T15:43:50.491Z,3.42
2022-09-06T15:46:21.107Z,3.00
2022-09-06T15:48:51.284Z,21.67
2022-09-06T15:51:21.692Z,5.30
2022-09-06T15:53:51.072Z,3.80
2022-09-06T15:56:19.636Z,3.30
2022-09-06T15:58:48.014Z,2.85
2022-09-06T16:01:17.666Z,2.90
2022-09-06T16:03:47.208Z,3.47
2022-09-06T16:08:58.363Z,2.80
2022-09-06T16:11:26.946Z,3.20
2022-09-06T16:13:55.240Z,3.03
2022-09-06T16:16:23.534Z,2.90
2022-09-06T16:18:53.101Z,2.70
2022-09-06T16:21:23.984Z,3.30
2022-09-06T16:23:55.087Z,4.17
2022-09-06T16:26:24.019Z,2.90
2022-09-06T16:28:53.513Z,3.33
2022-09-06T16:31:23.325Z,3.20
2022-09-06T16:33:51.628Z,3.22
2022-09-06T16:36:19.982Z,3.03
2022-09-06T16:38:48.469Z,3.22
2022-09-06T16:41:20.489Z,35.00
2022-09-06T16:43:50.078Z,8.15
2022-09-06T16:46:18.357Z,4.45
2022-09-06T16:48:52.180Z,3.90
2022-09-06T16:51:21.858Z,3.50
2022-09-06T16:53:50.500Z,3.33
2022-09-06T16:56:21.833Z,3.03
2022-09-06T16:58:53.239Z,3.20
2022-09-06T17:01:21.716Z,3.25
2022-09-06T17:03:49.727Z,3.40
2022-09-06T17:06:18.732Z,3.03
2022-09-06T17:08:46.706Z,3.30
2022-09-06T17:11:16.795Z,3.10
2022-09-06T17:13:48.146Z,3.58
2022-09-06T17:16:33.699Z,3.25
2022-09-06T17:19:02.602Z,3.33
2022-09-06T17:21:31.032Z,2.83
2022-09-06T17:24:02.913Z,3.38
2022-09-06T17:29:00.524Z,3.55
2022-09-06T17:31:28.784Z,3.00
2022-09-06T17:33:58.465Z,3.35
2022-09-06T17:36:30.435Z,2.90
2022-09-06T17:39:03.429Z,2.90
2022-09-06T17:41:36.634Z,3.10
2022-09-06T17:44:07.153Z,3.45
2022-09-06T17:46:35.227Z,3.10
2022-09-06T17:49:04.936Z,6.45
2022-09-06T17:51:33.526Z,5.20
2022-09-06T17:54:01.604Z,3.75
2022-09-06T17:56:30.366Z,4.00
2022-09-06T17:59:00.078Z,3.65
2022-09-06T18:01:32.193Z,4.00
2022-09-06T18:04:00.675Z,7.45
2022-09-06T18:06:30.439Z,3.67
2022-09-06T18:09:00.998Z,3.60
2022-09-06T18:11:31.856Z,3.25
2022-09-06T18:14:01.886Z,3.13
2022-09-06T18:16:32.338Z,3.22
2022-09-06T18:19:04.488Z,3.10
2022-09-06T18:24:04.560Z,3.00
2022-09-06T18:26:32.643Z,3.33
2022-09-06T18:29:01.123Z,3.08
2022-09-06T18:31:29.637Z,2.88
2022-09-06T18:33:59.872Z,3.50
2022-09-06T18:36:32.016Z,3.08
2022-09-06T18:39:02.744Z,2.90
2022-09-06T18:41:48.497Z,3.00
2022-09-06T18:44:17.861Z,3.13
2022-09-06T18:46:46.141Z,2.92
2022-09-06T18:49:15.843Z,3.35
2022-09-06T18:51:44.685Z,3.22
2022-09-06T18:54:13.152Z,3.45
2022-09-06T18:56:41.171Z,2.90
2022-09-06T18:59:10.788Z,3.03
2022-09-06T19:01:39.038Z,3.05
2022-09-06T19:04:08.028Z,3.28
2022-09-06T19:06:38.225Z,3.17
2022-09-06T19:09:08.594Z,3.40
2022-09-06T19:11:36.692Z,3.42
2022-09-06T19:14:05.714Z,3.33
2022-09-06T19:16:33.719Z,3.03
2022-09-06T19:19:06.735Z,2.88
2022-09-06T19:21:39.378Z,3.05
2022-09-06T19:24:11.672Z,3.30
2022-09-06T19:26:42.076Z,3.47
2022-09-06T19:29:14.549Z,3.63
2022-09-06T19:31:44.869Z,3.30
2022-09-06T19:34:15.285Z,3.30
2022-09-06T19:36:44.913Z,3.40
2022-09-06T19:39:17.236Z,3.13
2022-09-06T19:44:16.362Z,3.22
2022-09-06T19:46:46.737Z,3.30
2022-09-06T19:49:16.492Z,3.30
2022-09-06T19:51:46.402Z,2.88
2022-09-06T19:54:16.392Z,3.20
2022-09-06T19:56:45.138Z,3.03
2022-09-06T19:59:14.455Z,3.55
2022-09-06T20:01:45.723Z,3.30
2022-09-06T20:04:15.755Z,3.20
2022-09-06T20:06:44.557Z,3.28
2022-09-06T20:09:12.688Z,3.17
2022-09-06T20:11:42.870Z,3.55
2022-09-06T20:14:11.152Z,3.20
2022-09-06T20:16:41.923Z,3.15
2022-09-06T20:19:11.949Z,3.00
2022-09-06T20:21:39.993Z,2.65
2022-09-06T20:24:08.133Z,3.20
2022-09-06T20:26:36.486Z,3.80
2022-09-06T20:29:06.602Z,3.25
2022-09-06T20:31:36.768Z,3.30
2022-09-06T20:34:06.485Z,3.10
2022-09-06T20:36:34.753Z,3.17
2022-09-06T20:39:03.207Z,3.03
2022-09-06T20:41:32.251Z,3.20
2022-09-06T20:44:01.201Z,3.53
2022-09-06T20:46:32.703Z,3.00
2022-09-06T20:49:04.334Z,3.15
2022-09-06T20:51:34.037Z,3.20
2022-09-06T20:54:03.138Z,3.30
2022-09-06T20:56:34.893Z,3.63
2022-09-06T20:59:04.755Z,3.38
2022-09-06T21:01:35.755Z,3.35
2022-09-06T21:04:05.943Z,3.40
2022-09-06T21:06:35.655Z,3.50
2022-09-06T21:09:04.994Z,3.45
2022-09-06T21:11:33.179Z,3.60
2022-09-06T21:14:01.588Z,3.30
2022-09-06T21:16:30.366Z,3.60
2022-09-06T21:19:02.896Z,3.10
2022-09-06T21:21:32.698Z,3.28
2022-09-06T21:24:01.427Z,3.83
2022-09-06T21:26:29.536Z,3.80
2022-09-06T21:28:57.583Z,3.30
2022-09-06T21:31:26.979Z,3.38
2022-09-06T21:33:57.786Z,3.17
2022-09-06T21:36:29.831Z,3.30
2022-09-06T21:38:59.174Z,3.20
2022-09-06T21:41:28.314Z,3.30
2022-09-06T21:43:58.638Z,3.38
2022-09-06T21:46:32.619Z,3.53
2022-09-06T21:49:02.862Z,3.25
2022-09-06T21:51:32.629Z,3.50
2022-09-06T21:54:03.399Z,3.13
2022-09-06T21:56:31.607Z,3.50
2022-09-06T21:58:59.952Z,3.50
2022-09-06T22:01:31.740Z,3.60
2022-09-06T22:06:37.703Z,3.47
2022-09-06T22:09:10.806Z,3.83
2022-09-06T22:11:40.681Z,3.40
2022-09-06T22:14:11.289Z,3.47
2022-09-06T22:16:40.340Z,3.42
2022-09-06T22:19:09.175Z,3.33
2022-09-06T22:21:39.528Z,3.70
2022-09-06T22:24:11.563Z,3.88
2022-09-06T22:26:41.763Z,3.60
2022-09-06T22:29:12.130Z,3.33
2022-09-06T22:31:40.561Z,3.83
2022-09-06T22:34:08.559Z,3.30
2022-09-06T22:36:37.826Z,3.38
2022-09-06T22:39:06.052Z,3.47
2022-09-06T22:41:34.985Z,3.88
2022-09-06T22:44:04.294Z,3.58
2022-09-06T22:46:32.593Z,3.13
2022-09-06T22:49:00.502Z,3.88
2022-09-06T22:51:28.361Z,3.55
2022-09-06T22:53:57.628Z,3.35
2022-09-06T22:56:25.515Z,3.58
2022-09-06T22:58:53.477Z,3.60
2022-09-06T23:01:21.445Z,3.55
2022-09-06T23:03:50.808Z,3.08
2022-09-06T23:06:19.821Z,3.60
2022-09-06T23:08:47.782Z,3.42
2022-09-06T23:11:19.759Z,3.22
2022-09-06T23:13:47.702Z,3.78
2022-09-06T23:16:18.234Z,3.50
2022-09-06T23:18:46.682Z,3.60
2022-09-06T23:21:16.899Z,3.35
2022-09-06T23:23:46.030Z,4.10
2022-09-06T23:26:16.181Z,3.25
2022-09-06T23:28:46.361Z,3.53
2022-09-06T23:31:16.152Z,3.53
2022-09-06T23:33:44.432Z,3.50
2022-09-06T23:36:14.517Z,3.40
2022-09-06T23:38:43.190Z,3.58
2022-09-06T23:41:11.373Z,3.42
2022-09-06T23:43:39.918Z,3.38
2022-09-06T23:46:10.241Z,3.33
2022-09-06T23:48:38.326Z,3.67
2022-09-06T23:51:06.328Z,3.85
2022-09-06T23:53:34.488Z,3.20
2022-09-06T23:56:02.679Z,3.25
2022-09-06T23:58:31.023Z,3.25
